Time;durP1;ratioP1;P1;durP2;ratioP2;P2;SDS_P1;SDS_P2;PMS_P1;PMS_P2;Temp;Humidity;BMP_temperature;BMP_pressure;BME280_temperature;BME280_humidity;BME280_pressure;Samples;Min_cycle;Max_cycle;Signal;HPM_P1;HPM_P2
2021/11/17 02:27:57;;;;;;;;;;;;;;;29.59;68.27;100965.38;5071966;27;66156;-39
2021/11/17 02:31:07;;;;;;;;;;;;;;;29.61;68.27;100969.53;5064443;27;70063;-39
2021/11/17 02:34:38;;;;;;;;;;;;;;;29.66;67.82;100960.81;5076180;27;65582;-39
2021/11/17 02:37:45;;;;;;;;;;;;;;;29.68;67.84;100963.31;5072263;28;70128;-39
2021/11/17 02:41:17;;;;;;;;;;;;;;;29.70;67.72;100962.06;5069270;28;67566;-39
2021/11/17 02:44:43;;;;;;;;;;;;;;;29.74;68.00;100963.28;5073687;27;70579;-39
2021/11/17 02:47:47;;;;;;;;;;;;;;;29.77;67.66;100962.03;5071291;28;65387;-39
2021/11/17 02:50:26;;;;;;;;;;;;;;;29.79;67.95;100966.19;5068479;27;70005;-40
2021/11/17 02:53:31;;;;;;;;;;;;;;;29.81;67.57;100958.72;5074050;27;67706;-39
2021/11/17 02:56:42;;;;;;;;;;;;;;;29.84;67.45;100952.88;5067630;27;70428;-40
2021/11/17 02:59:30;;;;;;;;;;;;;;;29.88;67.73;100952.44;5069204;27;66137;-39
2021/11/17 03:02:43;;;;;;;;;;;;;;;29.92;67.30;100959.09;5074797;27;70732;-38
2021/11/17 03:06:04;;;;;;;;;;;;;;;29.91;67.60;100952.84;5073831;27;66282;-38
2021/11/17 03:08:48;;;;;;;;;;;;;;;29.97;67.21;100956.56;5072757;27;70328;-39
2021/11/17 03:11:30;;;;;;;;;;;;;;;30.00;66.97;100961.56;5076136;27;66373;-39
2021/11/17 03:14:35;;;;;;;;;;;;;;;30.04;66.96;100957.41;5072287;27;70093;-39
2021/11/17 03:17:24;;;;;;;;;;;;;;;30.07;67.40;100956.97;5068423;27;66280;-39
2021/11/17 03:20:05;;;;;;;;;;;;;;;30.10;67.33;100961.97;5069433;27;70136;-38
2021/11/17 03:23:13;;;;;;;;;;;;;;;30.13;67.35;100956.13;5056796;28;66341;-38
2021/11/17 03:25:59;;;;;;;;;;;;;;;30.16;66.69;100957.56;5061286;27;70497;-39
2021/11/17 03:28:55;;;;;;;;;;;;;;;30.19;66.74;100954.44;5074146;27;66384;-39
2021/11/17 03:31:53;;;;;;;;;;;;;;;30.24;67.13;100958.19;5070258;27;70320;-38
2021/11/17 03:34:45;;;;;;;;;;;;;;;30.27;66.40;100941.50;5072077;27;66626;-38
2021/11/17 03:37:37;;;;;;;;;;;;;;;30.30;67.00;100942.97;5069815;27;70937;-39
2021/11/17 03:40:27;;;;;;;;;;;;;;;30.33;66.32;100944.41;5067615;27;66187;-39
2021/11/17 03:43:19;;;;;;;;;;;;;;;30.36;66.71;100933.97;5072979;27;70373;-39
2021/11/17 03:46:00;;;;;;;;;;;;;;;30.41;66.18;100936.06;5073655;27;65679;-38
2021/11/17 03:48:43;;;;;;;;;;;;;;;30.43;66.11;100923.97;5070778;27;70010;-38
2021/11/17 03:51:24;;;;;;;;;;;;;;;30.48;66.58;100931.44;5074293;27;67125;-39
2021/11/17 03:54:03;;;;;;;;;;;;;;;30.51;66.05;100931.00;5071547;27;69834;-39
2021/11/17 03:56:45;;;;;;;;;;;;;;;30.54;66.50;100930.56;5073247;27;66034;-40
2021/11/17 03:59:34;;;;;;;;;;;;;;;30.58;66.16;100920.13;5069662;27;69495;-39
2021/11/17 04:02:13;;;;;;;;;;;;;;;30.60;65.86;100927.00;5071442;27;66266;-38
2021/11/17 04:04:47;;;;;;;;;;;;;;;30.64;66.34;100916.53;5071239;27;69969;-39
2021/11/17 04:07:39;;;;;;;;;;;;;;;30.61;65.81;100915.09;5073793;27;67123;-39
2021/11/17 04:10:14;;;;;;;;;;;;;;;30.69;65.94;100912.13;5073919;28;70126;-40
2021/11/17 04:13:04;;;;;;;;;;;;;;;30.73;65.96;100904.44;5072437;27;66559;-39
2021/11/17 04:15:35;;;;;;;;;;;;;;;30.77;66.19;100896.69;5073512;27;70963;-38
2021/11/17 04:18:21;;;;;;;;;;;;;;;30.80;65.59;100896.28;5074396;27;65689;-39
2021/11/17 04:21:10;;;;;;;;;;;;;;;30.82;65.79;100894.19;5072701;27;69968;-39
2021/11/17 04:23:55;;;;;;;;;;;;;;;30.85;66.11;100893.75;5073301;27;66899;-38
2021/11/17 04:26:35;;;;;;;;;;;;;;;30.88;65.54;100877.06;5068543;27;68383;-39
2021/11/17 04:29:05;;;;;;;;;;;;;;;30.90;65.78;100870.38;5074850;27;65654;-39
2021/11/17 04:31:39;;;;;;;;;;;;;;;30.94;65.40;100862.63;5072820;27;70448;-38
2021/11/17 04:34:22;;;;;;;;;;;;;;;30.97;65.73;100854.03;5074111;27;65902;-38
2021/11/17 04:37:15;;;;;;;;;;;;;;;30.99;65.55;100851.94;5071744;27;70169;-38
2021/11/17 04:39:55;;;;;;;;;;;;;;;31.02;65.17;100837.97;5070545;27;65461;-39
2021/11/17 04:42:37;;;;;;;;;;;;;;;31.06;65.39;100832.91;5077853;27;70297;-38
2021/11/17 04:45:26;;;;;;;;;;;;;;;31.09;65.17;100814.34;5076381;27;66213;-39
2021/11/17 04:48:08;;;;;;;;;;;;;;;31.07;65.00;100804.78;5072542;27;69707;-39
2021/11/17 04:50:41;;;;;;;;;;;;;;;31.14;65.31;100806.34;5075176;27;65482;-37
2021/11/17 04:53:28;;;;;;;;;;;;;;;31.11;65.21;100798.69;5076198;27;70324;-38
2021/11/17 04:55:58;;;;;;;;;;;;;;;31.21;64.69;100816.31;5070950;27;66472;-39
2021/11/17 04:58:32;;;;;;;;;;;;;;;31.22;64.93;100807.13;5070838;27;70316;-38
2021/11/17 05:01:02;;;;;;;;;;;;;;;31.25;64.80;100812.09;5075916;27;66612;-39
2021/11/17 05:03:53;;;;;;;;;;;;;;;31.27;64.55;100807.28;5075033;27;70330;-41
2021/11/17 05:06:39;;;;;;;;;;;;;;;31.29;64.80;100805.19;5074520;27;66275;-39
2021/11/17 05:09:28;;;;;;;;;;;;;;;31.32;64.37;100804.75;5073026;27;69210;-39
2021/11/17 05:12:31;;;;;;;;;;;;;;;31.35;64.41;100796.97;5076084;27;65913;-38
2021/11/17 05:15:20;;;;;;;;;;;;;;;31.39;64.02;100802.81;5050151;28;69754;-39
2021/11/17 05:18:09;;;;;;;;;;;;;;;31.42;63.97;100796.94;5074959;27;66481;-38
2021/11/17 05:20:50;;;;;;;;;;;;;;;31.47;64.03;100793.53;5074937;27;70007;-39
2021/11/17 05:23:39;;;;;;;;;;;;;;;31.51;64.05;100784.75;5076929;27;66256;-39
2021/11/17 05:26:12;;;;;;;;;;;;;;;31.54;63.74;100784.28;5075643;27;69285;-38
2021/11/17 05:28:51;;;;;;;;;;;;;;;31.57;64.07;100778.41;5072201;27;67016;-38
2021/11/17 05:31:24;;;;;;;;;;;;;;;31.59;64.03;100772.75;5069409;27;70066;-39
2021/11/17 05:34:05;;;;;;;;;;;;;;;31.60;63.70;100766.28;5077359;27;66593;-39
2021/11/17 05:36:39;;;;;;;;;;;;;;;31.63;63.54;100765.00;5074800;27;70584;-39
2021/11/17 05:39:18;;;;;;;;;;;;;;;31.67;63.41;100755.34;5077054;27;66082;-39
2021/11/17 05:42:04;;;;;;;;;;;;;;;31.66;63.78;100748.28;5077256;27;70239;-39
2021/11/17 05:44:56;;;;;;;;;;;;;;;31.73;63.63;100751.69;5073055;27;67303;-38
2021/11/17 05:47:29;;;;;;;;;;;;;;;31.74;63.14;100746.06;5073931;27;69975;-39
2021/11/17 05:50:19;;;;;;;;;;;;;;;31.76;63.05;100737.69;5075902;27;65697;-38
2021/11/17 05:53:05;;;;;;;;;;;;;;;31.78;63.42;100724.72;5070856;27;69865;-38
2021/11/17 05:55:45;;;;;;;;;;;;;;;31.79;63.18;100715.56;5074816;27;65452;-39
2021/11/17 05:58:19;;;;;;;;;;;;;;;31.71;63.01;100691.47;5076031;27;70615;-41
2021/11/17 06:00:52;;;;;;;;;;;;;;;31.84;62.96;100704.81;5074126;27;67294;-39
2021/11/17 06:03:31;;;;;;;;;;;;;;;31.85;62.80;100698.34;5075292;27;70461;-38
2021/11/17 06:06:02;;;;;;;;;;;;;;;31.88;62.78;100697.88;5071626;27;66658;-38
2021/11/17 06:08:32;;;;;;;;;;;;;;;31.83;63.05;100687.72;5074993;27;69038;-40
2021/11/17 06:11:04;;;;;;;;;;;;;;;31.91;62.93;100692.03;5075314;27;66327;-39
2021/11/17 06:13:35;;;;;;;;;;;;;;;31.95;62.47;100695.91;5075639;27;70010;-40
2021/11/17 06:16:06;;;;;;;;;;;;;;;31.96;62.72;100684.03;5074528;27;65716;-39
2021/11/17 06:18:37;;;;;;;;;;;;;;;32.00;62.52;100681.66;5073897;27;69407;-39
2021/11/17 06:21:08;;;;;;;;;;;;;;;32.01;62.38;100675.16;5076435;27;65798;-38
2021/11/17 06:23:47;;;;;;;;;;;;;;;32.02;62.61;100677.66;5073947;27;70151;-39
2021/11/17 06:26:20;;;;;;;;;;;;;;;32.05;62.34;100677.19;5071780;27;66400;-37
2021/11/17 06:28:53;;;;;;;;;;;;;;;32.08;61.98;100669.66;5075061;27;70407;-38
2021/11/17 06:31:24;;;;;;;;;;;;;;;32.09;62.18;100666.69;5071573;27;65484;-40
2021/11/17 06:33:55;;;;;;;;;;;;;;;32.10;61.98;100657.50;5075813;27;69833;-39
2021/11/17 06:36:25;;;;;;;;;;;;;;;32.12;61.98;100651.81;5076362;27;65605;-39
2021/11/17 06:38:57;;;;;;;;;;;;;;;32.13;62.02;100640.75;5074486;27;70817;-39
2021/11/17 06:41:28;;;;;;;;;;;;;;;32.16;61.70;100634.84;5068725;27;65497;-38
2021/11/17 06:43:58;;;;;;;;;;;;;;;32.19;62.01;100628.94;5074301;27;69239;-39
2021/11/17 06:46:29;;;;;;;;;;;;;;;32.21;61.95;100623.31;5075761;27;65617;-39
2021/11/17 06:49:00;;;;;;;;;;;;;;;32.24;61.85;100620.09;5074653;27;70047;-38
2021/11/17 06:51:30;;;;;;;;;;;;;;;32.26;61.88;100612.53;5074445;27;66597;-39
2021/11/17 06:54:01;;;;;;;;;;;;;;;32.29;61.63;100601.22;5075074;27;69070;-39
2021/11/17 06:56:32;;;;;;;;;;;;;;;32.32;61.79;100598.03;5075206;27;65432;-39
2021/11/17 06:59:02;;;;;;;;;;;;;;;32.33;61.67;100596.97;5072761;27;69231;-38
2021/11/17 07:01:33;;;;;;;;;;;;;;;32.36;61.79;100596.50;5070101;27;66610;-39
2021/11/17 07:04:07;;;;;;;;;;;;;;;32.15;61.96;100554.50;5062571;27;69798;-38
2021/11/17 07:06:46;;;;;;;;;;;;;;;32.42;61.89;100595.53;5067577;27;66616;-39
2021/11/17 07:09:27;;;;;;;;;;;;;;;32.45;61.64;100586.91;5074107;27;70197;-39
2021/11/17 07:12:05;;;;;;;;;;;;;;;32.47;61.61;100582.09;5072782;27;66055;-39
2021/11/17 07:14:41;;;;;;;;;;;;;;;32.52;61.49;100583.31;5071417;27;69537;-39
2021/11/17 07:17:39;;;;;;;;;;;;;;;32.54;61.12;100581.16;5071420;27;66128;-39
2021/11/17 07:20:26;;;;;;;;;;;;;;;32.57;61.22;100578.81;5072573;27;69333;-39
2021/11/17 07:23:15;;;;;;;;;;;;;;;32.60;61.12;100580.22;5069950;27;59848;-39
2021/11/17 07:25:55;;;;;;;;;;;;;;;32.64;61.33;100573.22;5071918;27;69303;-39
2021/11/17 07:28:30;;;;;;;;;;;;;;;32.63;60.97;100566.97;5073272;27;66854;-39
2021/11/17 07:31:38;;;;;;;;;;;;;;;32.70;60.94;100564.13;5072110;27;70036;-38
2021/11/17 07:34:14;;;;;;;;;;;;;;;32.72;61.08;100562.81;5048690;28;64891;-39
2021/11/17 07:36:51;;;;;;;;;;;;;;;32.76;60.68;100568.59;5066967;27;69329;-38
2021/11/17 07:39:39;;;;;;;;;;;;;;;32.81;60.77;100576.03;5072941;27;66900;-39
2021/11/17 07:42:19;;;;;;;;;;;;;;;32.84;60.80;100575.53;5068262;27;68788;-39
2021/11/17 07:44:54;;;;;;;;;;;;;;;32.87;60.96;100559.56;5070015;27;65469;-39
2021/11/17 07:47:28;;;;;;;;;;;;;;;32.91;60.86;100557.22;5071373;27;69835;-39
2021/11/17 07:50:19;;;;;;;;;;;;;;;32.96;60.85;100553.75;5066390;27;66260;-39
2021/11/17 07:53:01;;;;;;;;;;;;;;;32.99;60.80;100561.41;5071233;27;70157;-39
2021/11/17 07:55:44;;;;;;;;;;;;;;;32.91;60.79;100547.16;5071791;27;66042;-38
2021/11/17 07:58:23;;;;;;;;;;;;;;;32.99;60.68;100553.25;5070129;27;69753;-39
2021/11/17 08:01:06;;;;;;;;;;;;;;;32.98;60.71;100559.78;5066945;27;66832;-38
2021/11/17 08:03:48;;;;;;;;;;;;;;;33.11;60.68;100583.97;5065591;27;69961;-38
2021/11/17 08:06:36;;;;;;;;;;;;;;;33.16;60.62;100589.50;5071424;27;66885;-39
2021/11/17 08:09:12;;;;;;;;;;;;;;;33.19;60.55;100593.66;5057690;28;69575;-39
2021/11/17 08:11:47;;;;;;;;;;;;;;;33.21;60.65;100591.50;5072589;27;66304;-39
2021/11/17 08:14:27;;;;;;;;;;;;;;;33.23;60.38;100589.34;5078682;27;69912;-39
2021/11/17 08:17:04;;;;;;;;;;;;;;;33.25;60.77;100587.22;5077376;27;66391;-39
2021/11/17 08:19:41;;;;;;;;;;;;;;;33.26;60.59;100584.25;5062331;27;69500;-40
2021/11/17 08:22:16;;;;;;;;;;;;;;;33.28;60.69;100594.91;5064373;27;66794;-39
2021/11/17 08:24:47;;;;;;;;;;;;;;;33.29;60.61;100593.81;5075912;27;70790;-42
2021/11/17 08:27:25;;;;;;;;;;;;;;;33.30;60.74;100590.03;5078601;27;65277;-38
2021/11/17 08:30:04;;;;;;;;;;;;;;;33.31;61.01;100586.25;5066950;27;70042;-39
2021/11/17 08:32:39;;;;;;;;;;;;;;;33.31;60.88;100586.25;5078296;27;65591;-39
2021/11/17 08:35:15;;;;;;;;;;;;;;;33.31;60.97;100580.81;5070847;27;71015;-39
2021/11/17 08:37:50;;;;;;;;;;;;;;;33.31;60.83;100589.78;5078309;27;65776;-39
2021/11/17 08:40:31;;;;;;;;;;;;;;;33.31;60.71;100595.22;5078290;27;70106;-38
2021/11/17 08:43:02;;;;;;;;;;;;;;;33.29;61.13;100616.41;5075568;27;64918;-37
2021/11/17 08:45:39;;;;;;;;;;;;;;;33.30;61.14;100650.69;5065837;27;68501;-40
2021/11/17 08:48:12;;;;;;;;;;;;;;;33.24;61.13;100640.78;5073444;27;65962;-39
2021/11/17 08:50:43;;;;;;;;;;;;;;;33.29;61.31;100659.06;5077663;27;70970;-39
2021/11/17 08:53:16;;;;;;;;;;;;;;;33.29;61.37;100669.94;5072474;27;65963;-39
2021/11/17 08:55:47;;;;;;;;;;;;;;;33.28;61.34;100674.56;5070522;27;70089;-38
2021/11/17 08:58:24;;;;;;;;;;;;;;;33.21;61.09;100679.31;5075764;27;66146;-39
2021/11/17 09:00:55;;;;;;;;;;;;;;;33.27;61.21;100683.78;5076612;27;69197;-39
2021/11/17 09:03:26;;;;;;;;;;;;;;;33.26;61.24;100687.53;5077044;27;66250;-40
2021/11/17 09:05:58;;;;;;;;;;;;;;;33.25;61.38;100685.09;5078183;27;70106;-39
2021/11/17 09:08:30;;;;;;;;;;;;;;;33.19;61.27;100680.63;5074647;27;65399;-37
2021/11/17 09:11:03;;;;;;;;;;;;;;;33.22;61.58;100685.56;5077576;27;69766;-39
2021/11/17 09:13:34;;;;;;;;;;;;;;;33.20;61.49;100693.13;5076671;27;66056;-39
2021/11/17 09:19:01;;;;;;;;;;;;;;;33.18;61.77;100706.13;5074043;27;66664;-40
2021/11/17 09:21:33;;;;;;;;;;;;;;;33.15;62.00;100702.00;5075764;27;70469;-39
2021/11/17 09:24:04;;;;;;;;;;;;;;;33.13;62.09;100701.44;5075759;27;66455;-40
2021/11/17 09:26:36;;;;;;;;;;;;;;;33.10;61.86;100707.34;5075515;27;70371;-38
2021/11/17 09:29:08;;;;;;;;;;;;;;;33.09;62.16;100702.97;5077683;27;65827;-39
2021/11/17 09:31:41;;;;;;;;;;;;;;;33.06;62.12;100692.56;5076227;27;71070;-39
2021/11/17 09:34:18;;;;;;;;;;;;;;;33.04;62.43;100672.97;5073498;27;65621;-39
2021/11/17 09:36:51;;;;;;;;;;;;;;;33.01;62.72;100657.97;5074089;27;69993;-40
2021/11/17 09:39:22;;;;;;;;;;;;;;;33.00;62.97;100666.38;5075932;27;65052;-39
2021/11/17 09:41:54;;;;;;;;;;;;;;;32.97;62.99;100650.50;5074362;27;70901;-39
2021/11/17 09:44:29;;;;;;;;;;;;;;;32.93;62.93;100653.72;5077315;27;66514;-39
2021/11/17 09:47:01;;;;;;;;;;;;;;;32.92;63.01;100654.75;5076352;27;70516;-39
2021/11/17 09:49:47;;;;;;;;;;;;;;;32.89;62.80;100660.69;5072944;27;65814;-39
2021/11/17 09:52:20;;;;;;;;;;;;;;;32.87;63.33;100670.94;5076288;27;69152;-38
2021/11/17 09:54:56;;;;;;;;;;;;;;;32.86;63.34;100665.78;5075203;27;66193;-39
2021/11/17 09:57:28;;;;;;;;;;;;;;;32.82;63.49;100654.56;5072601;27;70503;-39
2021/11/17 10:00:02;;;;;;;;;;;;;;;32.80;63.98;100656.69;5074887;27;67012;-40
2021/11/17 10:02:37;;;;;;;;;;;;;;;32.78;64.23;100647.94;5076978;27;70643;-39
2021/11/17 10:05:16;;;;;;;;;;;;;;;32.76;64.55;100644.63;5075079;27;65704;-39
2021/11/17 10:13:32;;;;;;;;;;;;;;;32.71;65.35;100663.56;5076406;27;69012;-39
2021/11/17 10:16:27;;;;;;;;;;;;;;;32.67;66.10;100662.38;5076393;27;66376;-39
2021/11/17 10:19:26;;;;;;;;;;;;;;;32.63;67.02;100669.34;5072853;27;70072;-39
2021/11/17 10:21:56;;;;;;;;;;;;;;;32.61;67.11;100685.88;5070939;27;65632;-39
2021/11/17 10:24:47;;;;;;;;;;;;;;;32.61;67.00;100704.06;5072239;27;70646;-39
2021/11/17 10:27:25;;;;;;;;;;;;;;;32.61;67.00;100706.78;5072712;27;66834;-39
2021/11/17 10:30:08;;;;;;;;;;;;;;;32.56;67.63;100703.94;5069176;28;69886;-40
2021/11/17 10:32:39;;;;;;;;;;;;;;;32.55;67.54;100707.72;5083011;27;66137;-40
2021/11/17 10:35:21;;;;;;;;;;;;;;;32.55;67.63;100713.16;5071744;27;69805;-39
2021/11/17 10:38:06;;;;;;;;;;;;;;;32.53;67.74;100709.84;5073417;27;66994;-39
2021/11/17 10:40:46;;;;;;;;;;;;;;;32.52;67.38;100710.91;5072679;27;69851;-40
2021/11/17 10:43:20;;;;;;;;;;;;;;;32.44;67.64;100710.16;5076930;27;66247;-39
2021/11/17 10:46:05;;;;;;;;;;;;;;;32.46;67.68;100724.38;5075652;27;70101;-40
2021/11/17 10:48:38;;;;;;;;;;;;;;;32.46;67.59;100720.84;5078586;27;66267;-40
2021/11/17 10:51:19;;;;;;;;;;;;;;;32.45;67.62;100730.81;5076909;27;70600;-40
2021/11/17 10:53:51;;;;;;;;;;;;;;;32.44;67.79;100737.31;5077484;27;65636;-39
2021/11/17 10:56:24;;;;;;;;;;;;;;;32.43;68.00;100734.81;5079482;27;69296;-40
2021/11/17 10:58:56;;;;;;;;;;;;;;;32.41;67.75;100735.06;5072096;27;66110;-40
2021/11/17 11:01:37;;;;;;;;;;;;;;;32.39;68.16;100737.19;5078416;27;70348;-40
2021/11/17 11:04:16;;;;;;;;;;;;;;;32.37;67.97;100742.00;5072518;27;66382;-39
2021/11/17 11:06:50;;;;;;;;;;;;;;;32.37;67.93;100765.63;5072553;27;70285;-41
2021/11/17 11:09:54;;;;;;;;;;;;;;;32.34;68.06;100772.34;5073275;27;65553;-39
2021/11/17 11:12:27;;;;;;;;;;;;;;;32.33;68.15;100775.31;5073714;27;68797;-39
2021/11/17 11:15:03;;;;;;;;;;;;;;;32.30;68.56;100792.88;5072086;27;66394;-39
2021/11/17 11:17:37;;;;;;;;;;;;;;;32.28;68.88;100789.56;5073920;27;69971;-41
2021/11/17 11:20:16;;;;;;;;;;;;;;;31.92;70.95;100790.50;5073163;27;66304;-39
2021/11/17 11:23:05;;;;;;;;;;;;;;;31.65;71.64;100780.00;5073951;27;69338;-40
2021/11/17 11:25:42;;;;;;;;;;;;;;;31.51;72.13;100790.16;5071658;27;66845;-40
2021/11/17 11:28:24;;;;;;;;;;;;;;;31.39;72.34;100802.81;5072342;27;69968;-40
2021/11/17 11:31:07;;;;;;;;;;;;;;;31.28;72.92;100795.38;5071995;27;65668;-40
2021/11/17 11:33:38;;;;;;;;;;;;;;;31.23;72.59;100792.53;5070876;27;69453;-39
2021/11/17 11:36:11;;;;;;;;;;;;;;;31.15;72.93;100783.66;5073694;27;66067;-39
2021/11/17 11:38:42;;;;;;;;;;;;;;;31.10;73.40;100788.91;5071930;27;70375;-39
2021/11/17 11:41:18;;;;;;;;;;;;;;;31.06;73.19;100778.72;5075138;27;66317;-39
2021/11/17 11:44:08;;;;;;;;;;;;;;;31.04;73.59;100789.81;5072508;27;70239;-39
2021/11/17 11:46:39;;;;;;;;;;;;;;;31.02;73.41;100781.06;5072440;27;66514;-40
2021/11/17 11:49:29;;;;;;;;;;;;;;;30.98;73.24;100804.25;5076410;27;70016;-39
2021/11/17 11:52:18;;;;;;;;;;;;;;;30.94;74.05;100805.72;5077620;27;66325;-40
2021/11/17 11:54:55;;;;;;;;;;;;;;;30.89;73.58;100802.84;5074871;27;70178;-39
2021/11/17 11:57:32;;;;;;;;;;;;;;;30.85;73.99;100823.31;5077092;27;65728;-40
2021/11/17 12:00:21;;;;;;;;;;;;;;;30.83;73.31;100825.41;5075636;27;69806;-39
2021/11/17 12:02:54;;;;;;;;;;;;;;;30.80;73.95;100831.28;5076370;27;65529;-40
2021/11/17 12:05:30;;;;;;;;;;;;;;;30.81;73.71;100836.47;5057179;27;69923;-40
2021/11/17 12:08:20;;;;;;;;;;;;;;;30.78;74.31;100849.59;5071858;27;66609;-41
2021/11/17 12:10:57;;;;;;;;;;;;;;;30.75;73.98;100853.56;5079140;27;70751;-41
2021/11/17 12:13:29;;;;;;;;;;;;;;;30.73;73.71;100869.22;5078137;27;65723;-41
2021/11/17 12:16:08;;;;;;;;;;;;;;;30.72;74.12;100860.25;5076761;27;70906;-41
2021/11/17 12:19:04;;;;;;;;;;;;;;;30.75;74.71;100855.44;5074347;27;67049;-42
2021/11/17 12:21:54;;;;;;;;;;;;;;;30.80;74.87;100848.34;5078223;27;69361;-41
2021/11/17 12:24:27;;;;;;;;;;;;;;;30.82;74.86;100842.72;5075791;27;65765;-38
2021/11/17 12:27:16;;;;;;;;;;;;;;;30.84;74.52;100860.41;5080833;27;70161;-38
2021/11/17 12:29:50;;;;;;;;;;;;;;;30.80;73.72;100853.78;5078679;27;65494;-39
2021/11/17 12:32:34;;;;;;;;;;;;;;;30.78;74.14;100850.41;5077740;27;70258;-38
2021/11/17 12:35:05;;;;;;;;;;;;;;;30.73;74.51;100863.81;5077652;28;66762;-38
2021/11/17 12:37:43;;;;;;;;;;;;;;;30.71;74.60;100858.59;5076897;27;69463;-40
2021/11/17 12:40:16;;;;;;;;;;;;;;;30.73;74.21;100859.22;5077228;27;66417;-40
2021/11/17 12:42:52;;;;;;;;;;;;;;;30.70;74.21;100870.50;5077929;27;70612;-39
2021/11/17 12:45:28;;;;;;;;;;;;;;;30.69;74.53;100868.81;5078894;27;65488;-40
2021/11/17 12:48:02;;;;;;;;;;;;;;;30.58;73.99;100861.41;5076665;27;70361;-41
2021/11/17 12:50:33;;;;;;;;;;;;;;;30.65;73.76;100873.03;5078131;27;65530;-39
2021/11/17 12:53:07;;;;;;;;;;;;;;;30.61;73.75;100882.63;5075787;27;70321;-39
2021/11/17 12:55:46;;;;;;;;;;;;;;;30.61;74.22;100887.19;5077642;27;66573;-39
2021/11/17 12:58:24;;;;;;;;;;;;;;;30.59;74.14;100890.16;5077154;27;70344;-39
2021/11/17 13:00:58;;;;;;;;;;;;;;;30.55;74.11;100888.91;5081749;27;66096;-41
2021/11/17 13:03:36;;;;;;;;;;;;;;;30.61;73.93;100893.44;5081484;27;70309;-39
2021/11/17 13:06:16;;;;;;;;;;;;;;;30.53;71.45;100896.41;5080457;27;65746;-38
2021/11/17 13:08:48;;;;;;;;;;;;;;;30.38;69.50;100891.31;5079356;27;70350;-40
2021/11/17 13:11:35;;;;;;;;;;;;;;;30.15;67.82;100889.09;5079503;27;65648;-39
2021/11/17 13:14:52;;;;;;;;;;;;;;;30.02;67.82;100892.69;5076060;27;69091;-40
2021/11/17 13:17:42;;;;;;;;;;;;;;;29.96;67.05;100896.25;5076898;27;65255;-42
2021/11/17 13:20:24;;;;;;;;;;;;;;;29.84;66.03;100904.19;5074596;27;70016;-39
2021/11/17 13:23:10;;;;;;;;;;;;;;;29.71;64.22;100909.63;5079834;27;65818;-41
2021/11/17 13:26:09;;;;;;;;;;;;;;;29.58;63.28;100915.84;5079650;27;70249;-40
2021/11/17 13:28:52;;;;;;;;;;;;;;;29.46;61.26;100916.72;5076087;27;65556;-39
2021/11/17 13:31:40;;;;;;;;;;;;;;;29.34;60.18;100920.06;5079074;27;69190;-39
2021/11/17 13:34:38;;;;;;;;;;;;;;;29.27;59.05;100919.22;5079586;27;65816;-42
2021/11/17 13:37:34;;;;;;;;;;;;;;;29.14;59.20;100919.22;5041723;28;70007;-40
2021/11/17 13:40:12;;;;;;;;;;;;;;;29.12;59.68;100926.72;5076018;28;65652;-41
2021/11/17 13:42:46;;;;;;;;;;;;;;;29.02;60.92;100927.09;5058044;28;69348;-40
2021/11/17 13:45:23;;;;;;;;;;;;;;;28.89;61.98;100927.94;5078211;27;66028;-41
2021/11/17 13:47:54;;;;;;;;;;;;;;;28.77;63.65;100929.53;5033550;28;69647;-40
2021/11/17 13:50:30;;;;;;;;;;;;;;;28.71;63.33;100930.38;5071051;27;66767;-41
2021/11/17 13:53:01;;;;;;;;;;;;;;;28.64;63.42;100940.31;5078065;27;70340;-41
2021/11/17 13:55:35;;;;;;;;;;;;;;;28.50;63.13;100940.28;5046167;28;66668;-41
2021/11/17 13:58:07;;;;;;;;;;;;;;;28.45;64.13;100942.75;5078951;27;69519;-41
2021/11/17 14:00:41;;;;;;;;;;;;;;;28.47;64.36;100934.44;5078525;27;66562;-42
2021/11/17 14:03:17;;;;;;;;;;;;;;;28.42;64.32;100926.97;5075681;27;70007;-40
2021/11/17 14:05:49;;;;;;;;;;;;;;;28.51;63.88;100944.66;5078329;27;65023;-41
2021/11/17 14:08:22;;;;;;;;;;;;;;;28.52;65.15;100942.78;5078062;27;70325;-40
2021/11/17 14:10:53;;;;;;;;;;;;;;;28.75;63.79;100934.31;5077511;27;65206;-41
2021/11/17 14:13:23;;;;;;;;;;;;;;;28.82;61.83;100940.56;5077690;27;70082;-41
2021/11/17 14:15:54;;;;;;;;;;;;;;;28.90;60.93;100944.94;5077771;27;65930;-40
2021/11/17 14:18:26;;;;;;;;;;;;;;;28.94;60.75;100941.63;5075373;27;69892;-40
2021/11/17 14:20:57;;;;;;;;;;;;;;;28.95;59.64;100947.88;5075173;27;66410;-39
2021/11/17 14:23:28;;;;;;;;;;;;;;;28.93;58.85;100950.75;5077016;27;70754;-40
2021/11/17 14:25:59;;;;;;;;;;;;;;;28.95;58.70;100948.69;5078351;27;67707;-40
2021/11/17 14:28:36;;;;;;;;;;;;;;;28.96;59.04;100950.34;5075146;27;70236;-41
2021/11/17 14:31:09;;;;;;;;;;;;;;;28.98;59.29;100952.84;5079014;27;67066;-40
2021/11/17 14:33:44;;;;;;;;;;;;;;;28.95;58.94;100948.69;5077765;27;70122;-41
2021/11/17 14:36:15;;;;;;;;;;;;;;;28.95;58.37;100956.81;5077312;27;66446;-41
2021/11/17 14:38:45;;;;;;;;;;;;;;;28.93;58.28;100956.16;5076163;28;69715;-40
2021/11/17 14:41:15;;;;;;;;;;;;;;;28.93;57.83;100958.03;5076889;27;66596;-40
2021/11/17 14:43:46;;;;;;;;;;;;;;;28.91;57.75;100962.81;5077770;28;69490;-40
2021/11/17 14:46:17;;;;;;;;;;;;;;;28.87;56.94;100962.38;5076804;27;67108;-41
2021/11/17 14:48:48;;;;;;;;;;;;;;;28.87;56.84;100954.28;5074789;28;69891;-40
2021/11/17 14:51:18;;;;;;;;;;;;;;;28.85;56.36;100960.94;5078280;27;65739;-41
2021/11/17 14:53:50;;;;;;;;;;;;;;;28.83;56.08;100966.53;5077003;27;69878;-40
2021/11/17 14:56:21;;;;;;;;;;;;;;;28.79;55.81;100970.69;5075648;27;65643;-41
2021/11/17 14:58:53;;;;;;;;;;;;;;;28.79;55.62;100976.06;5079100;27;69325;-41
2021/11/17 15:01:25;;;;;;;;;;;;;;;28.76;55.59;100978.38;5079080;27;66516;-41
2021/11/17 15:03:57;;;;;;;;;;;;;;;28.75;55.08;100980.19;5077826;27;70037;-41
2021/11/17 15:06:27;;;;;;;;;;;;;;;28.69;54.45;100975.63;5077686;27;65457;-40
2021/11/17 15:08:58;;;;;;;;;;;;;;;28.66;55.27;100976.03;5078300;27;70540;-41
2021/11/17 15:11:29;;;;;;;;;;;;;;;28.63;54.44;100973.75;5074197;27;66171;-39
2021/11/17 15:13:59;;;;;;;;;;;;;;;28.58;53.95;100973.50;5078346;27;69493;-40
2021/11/17 15:16:30;;;;;;;;;;;;;;;28.50;53.66;100967.28;5075973;27;66706;-40
2021/11/17 15:19:01;;;;;;;;;;;;;;;28.44;52.65;100959.97;5076959;27;69688;-40
2021/11/17 15:21:32;;;;;;;;;;;;;;;28.40;52.47;100957.88;5078198;27;66618;-40
2021/11/17 15:24:03;;;;;;;;;;;;;;;28.34;52.33;100961.38;5078301;27;69209;-40
2021/11/17 15:26:45;;;;;;;;;;;;;;;28.29;52.06;100953.88;5077164;27;66325;-39
2021/11/17 15:29:17;;;;;;;;;;;;;;;28.23;51.88;100954.69;5078740;27;69474;-40
2021/11/17 15:31:47;;;;;;;;;;;;;;;28.13;51.46;100956.91;5078747;27;66393;-39
2021/11/17 15:34:18;;;;;;;;;;;;;;;28.06;51.33;100949.63;5073684;27;68984;-40
2021/11/17 15:36:49;;;;;;;;;;;;;;;28.10;51.76;100954.59;5078020;27;66079;-40
2021/11/17 15:39:20;;;;;;;;;;;;;;;28.13;52.62;100965.00;5080490;27;69185;-39
2021/11/17 15:41:52;;;;;;;;;;;;;;;28.14;52.96;100972.03;5077995;27;67072;-39
2021/11/17 15:44:23;;;;;;;;;;;;;;;28.12;52.65;100968.75;5077066;27;70034;-40
2021/11/17 15:46:58;;;;;;;;;;;;;;;28.02;52.01;100969.91;5076924;27;66359;-41
2021/11/17 15:49:29;;;;;;;;;;;;;;;27.97;51.66;100960.75;5077312;27;70818;-40
2021/11/17 15:52:00;;;;;;;;;;;;;;;27.90;50.96;100966.13;5076886;27;66005;-39
2021/11/17 15:54:30;;;;;;;;;;;;;;;27.84;50.81;100951.56;5076571;27;69322;-40
2021/11/17 15:57:01;;;;;;;;;;;;;;;27.81;50.05;100956.53;5078070;27;66303;-41
2021/11/17 15:59:32;;;;;;;;;;;;;;;27.75;49.58;100952.72;5077047;27;69834;-39
2021/11/17 16:02:17;;;;;;;;;;;;;;;27.73;49.85;100957.47;5076947;27;66392;-40
2021/11/17 16:04:51;;;;;;;;;;;;;;;27.68;49.35;100951.00;5076234;27;69454;-40
2021/11/17 16:07:21;;;;;;;;;;;;;;;27.62;49.49;100948.06;5075890;27;65610;-41
2021/11/17 16:09:55;;;;;;;;;;;;;;;27.57;49.46;100944.31;5076427;27;70421;-39
2021/11/17 16:12:27;;;;;;;;;;;;;;;27.56;49.99;100932.69;5077244;27;67137;-41